createdAt,value
2023-01-23T00:01:27.929Z,100.00
2023-01-23T00:03:55.541Z,100.00
2023-01-23T00:06:23.289Z,100.00
2023-01-23T00:08:50.224Z,100.00
2023-01-23T00:11:20.486Z,100.00
2023-01-23T00:13:48.066Z,100.00
2023-01-23T00:16:21.197Z,100.00
2023-01-23T00:18:49.199Z,100.00
2023-01-23T00:21:18.527Z,100.00
2023-01-23T00:23:49.713Z,100.00
2023-01-23T00:26:20.262Z,100.00
2023-01-23T00:28:48.081Z,100.00
2023-01-23T00:31:18.627Z,100.00
2023-01-23T00:33:46.338Z,100.00
2023-01-23T00:36:15.165Z,100.00
2023-01-23T00:38:42.630Z,100.00
2023-01-23T00:41:09.651Z,100.00
2023-01-23T00:43:36.517Z,100.00
2023-01-23T00:46:03.472Z,100.00
2023-01-23T00:48:30.663Z,100.00
2023-01-23T00:50:57.538Z,100.00
2023-01-23T00:53:24.948Z,100.00
2023-01-23T00:55:51.777Z,100.00
2023-01-23T00:58:18.614Z,100.00
2023-01-23T01:00:45.608Z,100.00
2023-01-23T01:03:12.976Z,100.00
2023-01-23T01:05:40.091Z,100.00
2023-01-23T01:08:07.031Z,100.00
2023-01-23T01:10:34.370Z,100.00
2023-01-23T01:13:03.120Z,100.00
2023-01-23T01:15:30.234Z,100.00
2023-01-23T01:17:58.198Z,100.00
2023-01-23T01:20:27.588Z,100.00
2023-01-23T01:22:56.722Z,100.00
2023-01-23T01:25:23.834Z,100.00
2023-01-23T01:27:51.151Z,100.00
2023-01-23T01:30:19.292Z,100.00
2023-01-23T01:32:46.327Z,100.00
2023-01-23T01:35:13.278Z,100.00
2023-01-23T01:37:41.182Z,100.00
2023-01-23T01:40:12.904Z,100.00
2023-01-23T01:42:50.483Z,100.00
2023-01-23T01:45:54.963Z,100.00
2023-01-23T01:48:26.159Z,100.00
2023-01-23T01:50:53.731Z,100.00
2023-01-23T01:53:23.625Z,100.00
2023-01-23T01:55:50.560Z,100.00
2023-01-23T01:58:18.607Z,100.00
2023-01-23T02:00:45.538Z,100.00
2023-01-23T02:03:12.813Z,100.00
2023-01-23T02:05:43.703Z,100.00
2023-01-23T02:08:52.339Z,100.00
2023-01-23T02:11:19.330Z,100.00
2023-01-23T02:13:46.254Z,100.00
2023-01-23T02:16:15.966Z,100.00
2023-01-23T02:18:46.123Z,100.00
2023-01-23T02:21:15.409Z,100.00
2023-01-23T02:24:13.158Z,100.00
2023-01-23T02:26:44.629Z,100.00
2023-01-23T02:29:12.923Z,100.00
2023-01-23T02:31:40.748Z,100.00
2023-01-23T02:34:12.051Z,100.00
2023-01-23T02:36:41.688Z,100.00
2023-01-23T02:39:10.311Z,100.00
2023-01-23T02:41:46.153Z,100.00
2023-01-23T02:44:23.078Z,100.00
2023-01-23T02:46:49.901Z,100.00
2023-01-23T02:49:16.869Z,100.00
2023-01-23T02:51:43.763Z,100.00
2023-01-23T02:54:10.567Z,100.00
2023-01-23T02:56:37.438Z,100.00
2023-01-23T02:59:04.488Z,100.00
2023-01-23T03:01:31.824Z,100.00
2023-01-23T03:03:58.661Z,100.00
2023-01-23T03:06:25.565Z,100.00
2023-01-23T03:08:52.397Z,100.00
2023-01-23T03:11:19.563Z,100.00
2023-01-23T03:13:47.640Z,100.00
2023-01-23T03:16:14.662Z,100.00
2023-01-23T03:18:53.590Z,100.00
2023-01-23T03:21:21.808Z,100.00
2023-01-23T03:23:48.702Z,100.00
2023-01-23T03:26:16.152Z,100.00
2023-01-23T03:28:42.984Z,100.00
2023-01-23T03:31:11.011Z,100.00
2023-01-23T03:33:37.853Z,100.00
2023-01-23T03:36:07.755Z,100.00
2023-01-23T03:38:34.713Z,100.00
2023-01-23T03:41:01.597Z,100.00
2023-01-23T03:43:32.273Z,100.00
2023-01-23T03:45:59.783Z,100.00
2023-01-23T03:48:27.133Z,100.00
2023-01-23T03:50:53.989Z,100.00
2023-01-23T03:53:20.843Z,100.00
2023-01-23T03:55:47.941Z,100.00
2023-01-23T03:58:15.109Z,100.00
2023-01-23T04:00:42.008Z,100.00
2023-01-23T04:03:09.278Z,100.00
2023-01-23T04:05:36.173Z,100.00
2023-01-23T04:08:03.933Z,100.00
2023-01-23T04:10:32.434Z,100.00
2023-01-23T04:12:59.419Z,100.00
2023-01-23T04:15:26.223Z,100.00
2023-01-23T04:17:53.093Z,100.00
2023-01-23T04:20:20.176Z,100.00
2023-01-23T04:22:47.421Z,100.00
2023-01-23T04:25:14.352Z,100.00
2023-01-23T04:27:41.161Z,100.00
2023-01-23T04:30:08.953Z,100.00
2023-01-23T04:32:35.851Z,100.00
2023-01-23T04:35:02.721Z,100.00
2023-01-23T04:37:29.707Z,100.00
2023-01-23T04:39:59.165Z,100.00
2023-01-23T04:42:25.963Z,100.00
2023-01-23T04:44:52.822Z,100.00
2023-01-23T04:47:19.742Z,100.00
2023-01-23T04:49:46.582Z,100.00
2023-01-23T04:52:13.528Z,100.00
2023-01-23T04:54:40.346Z,100.00
2023-01-23T04:57:07.271Z,100.00
2023-01-23T04:59:34.097Z,100.00
2023-01-23T05:02:00.927Z,100.00
2023-01-23T05:04:28.383Z,100.00
2023-01-23T05:06:55.204Z,100.00
2023-01-23T05:09:22.030Z,100.00
2023-01-23T05:11:48.873Z,100.00
2023-01-23T05:14:15.755Z,100.00
2023-01-23T05:16:42.671Z,100.00
2023-01-23T05:19:09.528Z,100.00
2023-01-23T05:21:36.469Z,100.00
2023-01-23T05:24:04.018Z,100.00
2023-01-23T05:26:30.965Z,100.00
2023-01-23T05:28:57.914Z,100.00
2023-01-23T05:31:24.943Z,100.00
2023-01-23T05:33:51.917Z,100.00
2023-01-23T05:36:18.860Z,100.00
2023-01-23T05:38:45.786Z,100.00
2023-01-23T05:41:12.804Z,100.00
2023-01-23T05:43:39.665Z,100.00
2023-01-23T05:46:06.586Z,100.00
2023-01-23T05:48:33.521Z,100.00
2023-01-23T05:51:03.341Z,100.00
2023-01-23T05:53:30.298Z,100.00
2023-01-23T05:55:57.266Z,100.00
2023-01-23T05:58:24.297Z,100.00
2023-01-23T06:00:51.119Z,100.00
2023-01-23T06:03:17.947Z,100.00
2023-01-23T06:05:44.783Z,100.00
2023-01-23T06:08:11.643Z,100.00
2023-01-23T06:10:38.691Z,100.00
2023-01-23T06:13:05.816Z,100.00
2023-01-23T06:15:32.666Z,100.00
2023-01-23T06:17:59.629Z,100.00
2023-01-23T06:20:26.649Z,100.00
2023-01-23T06:22:53.598Z,100.00
2023-01-23T06:25:20.472Z,100.00
2023-01-23T06:27:47.316Z,100.00
2023-01-23T06:30:14.573Z,100.00
2023-01-23T06:32:41.959Z,100.00
2023-01-23T06:35:09.331Z,100.00
2023-01-23T06:37:36.474Z,100.00
2023-01-23T06:40:04.184Z,100.00
2023-01-23T06:42:30.969Z,100.00
2023-01-23T06:44:57.888Z,100.00
2023-01-23T06:47:24.752Z,100.00
2023-01-23T06:49:51.639Z,100.00
2023-01-23T06:52:18.593Z,100.00
2023-01-23T06:54:45.525Z,100.00
2023-01-23T06:57:12.499Z,100.00
2023-01-23T06:59:39.428Z,100.00
2023-01-23T07:02:06.724Z,100.00
2023-01-23T07:04:33.715Z,100.00
2023-01-23T07:07:00.682Z,100.00
2023-01-23T07:09:27.666Z,100.00
2023-01-23T07:11:54.616Z,100.00
2023-01-23T07:14:21.963Z,100.00
2023-01-23T07:16:48.892Z,100.00
2023-01-23T07:19:15.710Z,100.00
2023-01-23T07:21:42.336Z,100.00
2023-01-23T07:24:09.020Z,100.00
2023-01-23T07:26:35.634Z,100.00
2023-01-23T07:29:02.246Z,100.00
2023-01-23T07:31:28.954Z,100.00
2023-01-23T07:33:55.559Z,100.00
2023-01-23T07:36:22.161Z,100.00
2023-01-23T07:38:49.036Z,100.00
2023-01-23T07:41:15.722Z,100.00
2023-01-23T07:43:42.328Z,100.00
2023-01-23T07:46:08.968Z,100.00
2023-01-23T07:48:37.095Z,100.00
2023-01-23T07:51:04.586Z,100.00
2023-01-23T07:53:31.354Z,100.00
2023-01-23T07:55:57.965Z,100.00
2023-01-23T07:58:24.598Z,100.00
2023-01-23T08:00:51.368Z,100.00
2023-01-23T08:03:18.051Z,100.00
2023-01-23T08:05:49.236Z,100.00
2023-01-23T08:08:15.964Z,100.00
2023-01-23T08:10:42.568Z,100.00
2023-01-23T08:13:09.659Z,100.00
2023-01-23T08:15:37.596Z,100.00
2023-01-23T08:18:04.549Z,100.00
2023-01-23T08:20:31.142Z,100.00
2023-01-23T08:22:57.761Z,100.00
2023-01-23T08:25:24.478Z,100.00
2023-01-23T08:27:51.083Z,100.00
2023-01-23T08:30:18.181Z,100.00
2023-01-23T08:32:44.922Z,100.00
2023-01-23T08:35:11.540Z,100.00
2023-01-23T08:37:38.230Z,100.00
2023-01-23T08:40:05.412Z,100.00
2023-01-23T08:42:32.122Z,100.00
2023-01-23T08:44:58.697Z,100.00
2023-01-23T08:47:25.314Z,100.00
2023-01-23T08:49:51.943Z,100.00
2023-01-23T08:52:18.633Z,100.00
2023-01-23T08:54:45.221Z,100.00
2023-01-23T08:57:11.860Z,100.00
2023-01-23T08:59:38.432Z,100.00
2023-01-23T09:02:05.046Z,100.00
2023-01-23T09:04:31.788Z,100.00
2023-01-23T09:06:58.376Z,100.00
2023-01-23T09:09:25.033Z,100.00
2023-01-23T09:11:51.828Z,100.00
2023-01-23T09:14:18.414Z,100.00
2023-01-23T09:16:45.059Z,100.00
2023-01-23T09:19:11.966Z,100.00
2023-01-23T09:21:38.829Z,100.00
2023-01-23T09:24:05.687Z,100.00
2023-01-23T09:26:32.272Z,100.00
2023-01-23T09:28:59.086Z,100.00
2023-01-23T09:31:26.043Z,100.00
2023-01-23T09:33:52.879Z,100.00
2023-01-23T09:36:27.477Z,100.00
2023-01-23T09:39:00.879Z,100.00
2023-01-23T09:41:28.620Z,100.00
2023-01-23T09:44:28.384Z,100.00
2023-01-23T09:47:00.630Z,100.00
2023-01-23T09:49:35.358Z,100.00
2023-01-23T09:52:19.741Z,100.00
2023-01-23T09:54:59.966Z,100.00
2023-01-23T09:57:35.459Z,100.00
2023-01-23T10:00:05.883Z,98.86
2023-01-23T10:02:33.092Z,99.58
2023-01-23T10:04:59.916Z,100.00
2023-01-23T10:07:47.922Z,97.01
2023-01-23T10:10:32.311Z,99.52
2023-01-23T10:13:16.644Z,94.31
2023-01-23T10:16:02.125Z,98.64
2023-01-23T10:18:42.374Z,99.47
2023-01-23T10:21:27.983Z,97.27
2023-01-23T10:24:06.092Z,95.71
2023-01-23T10:26:44.000Z,94.36
2023-01-23T10:29:25.258Z,94.41
2023-01-23T10:31:55.892Z,93.95
2023-01-23T10:34:32.719Z,95.00
2023-01-23T10:37:19.672Z,92.93
2023-01-23T10:39:55.746Z,93.10
2023-01-23T10:42:26.034Z,94.06
2023-01-23T10:44:54.654Z,95.84
2023-01-23T10:47:37.138Z,91.98
2023-01-23T10:50:06.812Z,95.00
2023-01-23T10:52:42.992Z,94.10
2023-01-23T10:55:19.230Z,94.82
2023-01-23T10:57:49.194Z,93.19
2023-01-23T11:00:27.083Z,93.61
2023-01-23T11:02:54.071Z,93.49
2023-01-23T11:05:54.715Z,94.49
2023-01-23T11:08:29.500Z,89.53
2023-01-23T11:11:14.798Z,90.83
2023-01-23T11:13:43.801Z,90.62
2023-01-23T11:16:21.924Z,92.05
2023-01-23T11:19:05.410Z,93.71
2023-01-23T11:21:59.766Z,90.50
2023-01-23T11:24:39.702Z,90.84
2023-01-23T11:27:13.603Z,94.52
2023-01-23T11:30:24.948Z,88.95
2023-01-23T11:32:59.257Z,90.05
2023-01-23T11:35:48.499Z,91.48
2023-01-23T11:38:19.728Z,89.65
2023-01-23T11:40:51.602Z,89.30
2023-01-23T11:43:19.060Z,85.58
2023-01-23T11:45:51.099Z,86.97
2023-01-23T11:48:23.183Z,87.90
2023-01-23T11:50:55.745Z,89.13
2023-01-23T11:53:44.573Z,89.77
2023-01-23T11:56:34.810Z,88.73
2023-01-23T11:59:38.589Z,84.55
2023-01-23T12:02:10.740Z,85.27
2023-01-23T12:04:55.613Z,85.50
2023-01-23T12:07:24.550Z,86.67
2023-01-23T12:10:03.216Z,88.36
2023-01-23T12:12:48.443Z,84.60
2023-01-23T12:15:36.975Z,87.07
2023-01-23T12:18:22.060Z,82.40
2023-01-23T12:21:25.959Z,85.04
2023-01-23T12:24:11.354Z,85.06
2023-01-23T12:27:06.135Z,84.46
2023-01-23T12:30:06.936Z,83.60
2023-01-23T12:33:10.609Z,84.87
2023-01-23T12:35:43.357Z,85.02
2023-01-23T12:38:18.664Z,82.91
2023-01-23T12:40:53.047Z,84.09
2023-01-23T12:43:35.417Z,85.16
2023-01-23T12:46:10.747Z,83.61
2023-01-23T12:48:59.974Z,83.65
2023-01-23T12:51:38.657Z,83.56
2023-01-23T12:54:17.174Z,85.72
2023-01-23T12:56:45.101Z,84.32
2023-01-23T12:59:11.863Z,85.86
2023-01-23T13:01:59.787Z,85.11
2023-01-23T13:05:05.425Z,81.86
2023-01-23T13:07:35.049Z,82.28
2023-01-23T13:10:07.201Z,80.61
2023-01-23T13:12:34.548Z,83.37
2023-01-23T13:15:17.365Z,81.28
2023-01-23T13:17:57.972Z,82.78
2023-01-23T13:20:34.285Z,79.77
2023-01-23T13:23:25.337Z,82.30
2023-01-23T13:26:16.879Z,81.44
2023-01-23T13:28:54.291Z,81.11
2023-01-23T13:31:32.889Z,81.80
2023-01-23T13:34:14.677Z,82.01
2023-01-23T13:36:46.562Z,82.55
2023-01-23T13:39:28.151Z,84.09
2023-01-23T13:42:13.001Z,86.47
2023-01-23T13:45:16.743Z,82.36
2023-01-23T14:21:49.688Z,86.35
2023-01-23T14:24:25.541Z,88.46
2023-01-23T14:27:02.501Z,86.97
2023-01-23T14:29:31.316Z,87.18
2023-01-23T14:31:57.911Z,87.56
2023-01-23T14:34:26.178Z,86.26
2023-01-23T14:37:00.149Z,85.17
2023-01-23T14:39:28.785Z,88.58
2023-01-23T14:42:02.049Z,89.26
2023-01-23T14:44:41.634Z,86.41
2023-01-23T14:47:26.140Z,89.98
2023-01-23T14:49:54.513Z,89.71
2023-01-23T14:52:29.549Z,88.58
2023-01-23T14:54:59.135Z,89.95
2023-01-23T14:57:28.780Z,90.81
2023-01-23T14:59:57.450Z,90.76
2023-01-23T15:02:29.994Z,89.76
2023-01-23T15:05:11.976Z,89.24
2023-01-23T15:07:53.458Z,89.44
2023-01-23T15:10:20.154Z,87.73
2023-01-23T15:13:08.495Z,88.67
2023-01-23T15:15:35.696Z,89.61
2023-01-23T15:18:06.095Z,86.17
2023-01-23T15:20:36.776Z,87.49
2023-01-23T15:23:26.415Z,88.32
2023-01-23T15:26:09.083Z,89.91
2023-01-23T15:28:47.880Z,89.43
2023-01-23T15:31:26.710Z,87.69
2023-01-23T15:33:55.017Z,89.18
2023-01-23T15:36:28.218Z,89.91
2023-01-23T15:38:57.345Z,89.94
2023-01-23T15:41:45.021Z,86.71
2023-01-23T15:44:20.415Z,90.46
2023-01-23T15:46:47.298Z,89.28
2023-01-23T15:49:24.877Z,88.03
2023-01-23T15:51:52.286Z,87.87
2023-01-23T15:54:32.576Z,89.52
2023-01-23T15:57:07.585Z,89.49
2023-01-23T15:59:35.764Z,86.38
2023-01-23T16:02:02.474Z,86.18
2023-01-23T16:04:29.247Z,86.52
2023-01-23T16:07:25.916Z,87.36
2023-01-23T16:09:52.964Z,88.11
2023-01-23T16:12:20.696Z,88.94
2023-01-23T16:14:48.158Z,88.72
2023-01-23T16:17:17.171Z,85.07
2023-01-23T16:19:44.482Z,84.26
2023-01-23T16:22:23.822Z,86.36
2023-01-23T16:24:50.611Z,85.34
2023-01-23T16:27:19.289Z,86.16
2023-01-23T16:29:46.518Z,87.39
2023-01-23T16:32:13.272Z,86.93
2023-01-23T16:34:40.052Z,88.18
2023-01-23T16:37:14.704Z,88.73
2023-01-23T16:39:43.291Z,88.38
2023-01-23T16:42:23.041Z,88.61
2023-01-23T16:44:50.876Z,92.64
2023-01-23T16:47:17.665Z,90.00
2023-01-23T16:49:51.923Z,90.20
2023-01-23T16:52:20.825Z,91.30
2023-01-23T16:54:47.500Z,92.46
2023-01-23T16:57:19.420Z,90.43
2023-01-23T16:59:46.575Z,91.18
2023-01-23T17:02:29.712Z,93.15
2023-01-23T17:04:56.390Z,90.94
2023-01-23T17:07:23.123Z,94.11
2023-01-23T17:09:49.771Z,95.29
2023-01-23T17:12:23.296Z,94.21
2023-01-23T17:14:51.030Z,92.13
2023-01-23T17:17:36.889Z,93.39
2023-01-23T17:20:04.671Z,95.07
2023-01-23T17:22:37.889Z,94.77
2023-01-23T17:25:12.941Z,94.64
2023-01-23T17:27:45.368Z,97.54
2023-01-23T17:30:22.345Z,96.25
2023-01-23T17:32:52.976Z,97.02
2023-01-23T17:35:25.055Z,98.42
2023-01-23T17:37:51.993Z,97.49
2023-01-23T17:40:19.113Z,96.83
2023-01-23T17:42:45.715Z,95.93
2023-01-23T17:45:14.215Z,95.46
2023-01-23T17:47:43.887Z,93.53
2023-01-23T17:50:25.588Z,92.81
2023-01-23T17:52:53.293Z,91.78
2023-01-23T17:55:22.858Z,94.01
2023-01-23T17:57:49.900Z,97.33
2023-01-23T18:00:18.993Z,97.29
2023-01-23T18:02:57.212Z,98.98
2023-01-23T18:05:24.630Z,98.28
2023-01-23T18:07:54.134Z,100.00
2023-01-23T18:10:21.978Z,100.00
2023-01-23T18:12:58.285Z,99.67
2023-01-23T18:15:38.937Z,98.68
2023-01-23T18:18:12.365Z,96.51
2023-01-23T18:20:39.367Z,96.68
2023-01-23T18:23:06.344Z,99.10
2023-01-23T18:25:33.186Z,97.87
2023-01-23T18:28:13.593Z,99.20
2023-01-23T18:30:56.264Z,98.63
2023-01-23T18:33:25.563Z,100.00
2023-01-23T18:36:07.829Z,100.00
2023-01-23T18:38:59.188Z,100.00
2023-01-23T18:41:27.998Z,99.52
2023-01-23T18:44:07.378Z,99.91
2023-01-23T18:46:34.353Z,99.17
2023-01-23T18:49:01.258Z,100.00
2023-01-23T18:51:42.823Z,100.00
2023-01-23T18:54:35.775Z,100.00
2023-01-23T18:57:21.125Z,100.00
2023-01-23T19:00:07.814Z,100.00
2023-01-23T19:03:20.928Z,100.00
2023-01-23T19:05:47.807Z,100.00
2023-01-23T19:08:29.873Z,100.00
2023-01-23T19:11:04.719Z,100.00
2023-01-23T19:14:01.220Z,100.00
2023-01-23T19:16:41.662Z,100.00
2023-01-23T19:19:22.984Z,100.00
2023-01-23T19:21:51.258Z,100.00
2023-01-23T19:24:19.527Z,100.00
2023-01-23T19:26:46.501Z,100.00
2023-01-23T19:29:21.621Z,100.00
2023-01-23T19:32:03.626Z,100.00
2023-01-23T19:34:32.165Z,100.00
2023-01-23T19:36:58.790Z,100.00
2023-01-23T19:39:25.417Z,100.00
2023-01-23T19:41:52.714Z,100.00
2023-01-23T19:44:20.939Z,100.00
2023-01-23T19:46:48.808Z,100.00
2023-01-23T19:49:15.453Z,100.00
2023-01-23T19:51:42.333Z,100.00
2023-01-23T19:54:14.017Z,100.00
2023-01-23T19:56:41.109Z,100.00
2023-01-23T19:59:08.396Z,100.00
2023-01-23T20:01:39.000Z,100.00
2023-01-23T20:04:08.009Z,100.00
2023-01-23T20:06:34.752Z,100.00
2023-01-23T20:09:01.340Z,100.00
2023-01-23T20:11:27.949Z,100.00
2023-01-23T20:13:54.599Z,100.00
2023-01-23T20:16:23.821Z,100.00
2023-01-23T20:18:51.393Z,100.00
2023-01-23T20:21:20.385Z,100.00
2023-01-23T20:23:47.646Z,99.92
2023-01-23T20:26:16.175Z,100.00
2023-01-23T20:28:43.268Z,100.00
2023-01-23T20:31:12.161Z,100.00
2023-01-23T20:33:39.440Z,100.00
2023-01-23T20:36:07.328Z,100.00
2023-01-23T20:38:34.055Z,100.00
2023-01-23T20:41:10.288Z,100.00
2023-01-23T20:43:37.217Z,100.00
2023-01-23T20:46:06.135Z,100.00
2023-01-23T20:48:37.180Z,100.00
2023-01-23T20:51:05.498Z,100.00
2023-01-23T20:53:33.042Z,100.00
2023-01-23T20:56:19.211Z,100.00
2023-01-23T20:58:48.084Z,100.00
2023-01-23T21:01:15.266Z,100.00
2023-01-23T21:03:42.058Z,100.00
2023-01-23T21:06:10.284Z,100.00
2023-01-23T21:08:37.607Z,100.00
2023-01-23T21:11:18.354Z,100.00
2023-01-23T21:13:50.688Z,100.00
2023-01-23T21:16:18.137Z,100.00
2023-01-23T21:18:46.074Z,100.00
2023-01-23T21:21:15.818Z,100.00
2023-01-23T21:23:43.031Z,100.00
2023-01-23T21:26:09.738Z,100.00
2023-01-23T21:28:36.450Z,100.00
2023-01-23T21:31:15.362Z,100.00
2023-01-23T21:33:43.217Z,100.00
2023-01-23T21:36:11.376Z,100.00
2023-01-23T21:38:38.406Z,100.00
2023-01-23T21:41:05.454Z,100.00
2023-01-23T21:43:32.294Z,100.00
2023-01-23T21:45:58.961Z,100.00
2023-01-23T21:48:25.800Z,100.00
2023-01-23T21:50:52.441Z,100.00
2023-01-23T21:53:19.037Z,100.00
2023-01-23T21:55:51.805Z,100.00
2023-01-23T21:58:18.469Z,100.00
2023-01-23T22:00:45.069Z,100.00
2023-01-23T22:03:11.679Z,100.00
2023-01-23T22:05:38.337Z,100.00
2023-01-23T22:08:05.076Z,100.00
2023-01-23T22:10:31.923Z,100.00
2023-01-23T22:12:58.646Z,100.00
2023-01-23T22:15:25.542Z,100.00
2023-01-23T22:17:52.374Z,100.00
2023-01-23T22:20:19.013Z,100.00
2023-01-23T22:22:45.590Z,100.00
2023-01-23T22:25:12.304Z,100.00
2023-01-23T22:27:38.950Z,100.00
2023-01-23T22:30:06.301Z,100.00
2023-01-23T22:32:33.656Z,100.00
2023-01-23T22:35:00.266Z,100.00
2023-01-23T22:37:26.851Z,100.00
2023-01-23T22:39:53.579Z,100.00
2023-01-23T22:42:20.352Z,100.00
2023-01-23T22:44:46.940Z,100.00
2023-01-23T22:47:13.733Z,100.00
2023-01-23T22:49:40.403Z,100.00
2023-01-23T22:52:08.542Z,100.00
2023-01-23T22:54:35.967Z,100.00
2023-01-23T22:57:02.587Z,100.00
2023-01-23T22:59:29.302Z,100.00
2023-01-23T23:01:56.058Z,100.00
2023-01-23T23:04:22.686Z,100.00
2023-01-23T23:06:49.326Z,100.00
2023-01-23T23:09:15.949Z,100.00
2023-01-23T23:11:42.624Z,100.00
2023-01-23T23:14:10.186Z,100.00
2023-01-23T23:16:36.869Z,100.00
2023-01-23T23:19:04.469Z,100.00
2023-01-23T23:21:34.114Z,100.00
2023-01-23T23:24:00.878Z,100.00
2023-01-23T23:26:29.567Z,100.00
2023-01-23T23:28:56.305Z,100.00
2023-01-23T23:31:23.297Z,100.00
2023-01-23T23:33:50.116Z,100.00
2023-01-23T23:36:17.584Z,100.00
2023-01-23T23:38:44.308Z,100.00
2023-01-23T23:41:15.603Z,100.00
2023-01-23T23:43:45.361Z,100.00
2023-01-23T23:46:14.077Z,100.00
2023-01-23T23:48:41.038Z,100.00
2023-01-23T23:51:10.431Z,100.00
2023-01-23T23:53:37.062Z,100.00
2023-01-23T23:56:05.013Z,100.00
2023-01-23T23:58:32.622Z,100.00
